Time;durP1;ratioP1;P1;durP2;ratioP2;P2;SDS_P1;SDS_P2;PMS_P1;PMS_P2;Temp;Humidity;BMP_temperature;BMP_pressure;BME280_temperature;BME280_humidity;BME280_pressure;Samples;Min_cycle;Max_cycle;Signal;HPM_P1;HPM_P2
2021/03/19 00:00:39;;;;;;;;;;;0.90;91.80;;;;;;5054205;28;19909;-76
2021/03/19 00:03:04;;;;;;;;;;;0.90;91.80;;;;;;5036455;28;19912;-75
2021/03/19 00:05:31;;;;;;;;;;;0.90;91.70;;;;;;5054194;28;19905;-75
2021/03/19 00:07:57;;;;;;;;;;;1.00;91.70;;;;;;5054387;28;19905;-76
2021/03/19 00:10:25;;;;;;;;;;;0.90;91.70;;;;;;5054624;28;19912;-76
2021/03/19 00:12:51;;;;;;;;;;;0.90;91.70;;;;;;5054083;28;19919;-77
2021/03/19 00:15:19;;;;;;;;;;;0.90;91.80;;;;;;5054214;28;19919;-74
2021/03/19 00:17:44;;;;;;;;;;;0.90;91.60;;;;;;5053695;28;19928;-76
2021/03/19 00:20:10;;;;;;;;;;;0.90;91.60;;;;;;5053947;28;19905;-75
2021/03/19 00:22:37;;;;;;;;;;;0.80;91.40;;;;;;5054260;28;19905;-75
2021/03/19 00:25:03;;;;;;;;;;;0.80;91.40;;;;;;5053985;28;19905;-76
2021/03/19 00:27:29;;;;;;;;;;;0.80;91.40;;;;;;5053553;28;19905;-75
2021/03/19 00:29:54;;;;;;;;;;;0.80;91.40;;;;;;5053835;28;19959;-76
2021/03/19 00:32:20;;;;;;;;;;;0.70;91.30;;;;;;5035758;28;19913;-77
2021/03/19 00:34:46;;;;;;;;;;;0.70;91.20;;;;;;5053572;28;19905;-75
2021/03/19 00:37:14;;;;;;;;;;;0.70;91.30;;;;;;5053759;28;19912;-76
2021/03/19 00:39:40;;;;;;;;;;;0.70;91.60;;;;;;5035681;28;20396;-75
2021/03/19 00:42:08;;;;;;;;;;;0.70;91.30;;;;;;5053776;28;19952;-78
2021/03/19 00:44:36;;;;;;;;;;;0.70;91.40;;;;;;5049741;28;19905;-76
2021/03/19 00:47:01;;;;;;;;;;;0.70;91.40;;;;;;5053472;28;19904;-75
2021/03/19 00:49:27;;;;;;;;;;;0.70;91.40;;;;;;5035484;28;20292;-75
2021/03/19 00:51:53;;;;;;;;;;;0.70;91.30;;;;;;5053095;28;19912;-74
2021/03/19 00:54:18;;;;;;;;;;;0.60;91.30;;;;;;5053466;28;20066;-75
2021/03/19 00:56:44;;;;;;;;;;;0.60;91.40;;;;;;5035869;28;19974;-76
2021/03/19 00:59:10;;;;;;;;;;;0.60;91.40;;;;;;5035465;28;19920;-76
2021/03/19 01:01:36;;;;;;;;;;;0.60;91.40;;;;;;5054246;28;19905;-75
2021/03/19 01:04:03;;;;;;;;;;;0.60;91.40;;;;;;5053615;28;19911;-76
2021/03/19 01:06:28;;;;;;;;;;;0.50;91.60;;;;;;5053752;28;19908;-76
2021/03/19 01:08:54;;;;;;;;;;;0.60;91.40;;;;;;5052618;28;20003;-75
2021/03/19 01:11:19;;;;;;;;;;;0.60;91.40;;;;;;5053110;28;19936;-75
2021/03/19 01:13:45;;;;;;;;;;;0.60;91.40;;;;;;5053651;28;19904;-76
2021/03/19 01:16:11;;;;;;;;;;;0.60;91.40;;;;;;5053240;28;19951;-76
2021/03/19 01:18:36;;;;;;;;;;;0.60;91.40;;;;;;5053200;28;19908;-75
2021/03/19 01:21:02;;;;;;;;;;;0.70;91.40;;;;;;5052842;28;19947;-75
2021/03/19 01:23:28;;;;;;;;;;;0.70;91.40;;;;;;5053055;28;19986;-77
2021/03/19 01:25:55;;;;;;;;;;;0.70;91.40;;;;;;5050233;28;19915;-75
2021/03/19 01:28:21;;;;;;;;;;;0.80;91.20;;;;;;5053016;28;19904;-74
2021/03/19 01:30:46;;;;;;;;;;;0.80;91.10;;;;;;5034511;28;20269;-76
2021/03/19 01:33:12;;;;;;;;;;;0.80;91.10;;;;;;5052801;28;20335;-76
2021/03/19 01:35:39;;;;;;;;;;;0.90;91.10;;;;;;5053064;28;19905;-75
2021/03/19 01:38:14;;;;;;;;;;;0.90;91.10;;;;;;5052820;28;19939;-76
2021/03/19 01:40:42;;;;;;;;;;;0.90;91.00;;;;;;5034879;28;20357;-77
2021/03/19 01:43:24;;;;;;;;;;;0.90;90.80;;;;;;5040819;28;19952;-75
2021/03/19 01:45:59;;;;;;;;;;;0.90;90.70;;;;;;5052758;28;20409;-76
2021/03/19 01:48:43;;;;;;;;;;;0.90;90.60;;;;;;5052743;28;20317;-74
2021/03/19 01:51:27;;;;;;;;;;;0.90;90.70;;;;;;5052737;28;20003;-75
2021/03/19 01:54:11;;;;;;;;;;;0.80;90.50;;;;;;5043039;28;20373;-76
2021/03/19 01:56:55;;;;;;;;;;;0.70;90.30;;;;;;5050510;28;19909;-74
2021/03/19 01:59:42;;;;;;;;;;;0.70;90.40;;;;;;5052588;28;19991;-75
2021/03/19 02:02:26;;;;;;;;;;;0.70;90.40;;;;;;5052455;28;19999;-74
2021/03/19 02:05:10;;;;;;;;;;;0.70;90.30;;;;;;5052480;28;19905;-75
2021/03/19 02:07:55;;;;;;;;;;;0.70;90.40;;;;;;5041024;28;19904;-75
2021/03/19 02:10:39;;;;;;;;;;;0.70;90.40;;;;;;5052306;28;19913;-74
2021/03/19 02:13:23;;;;;;;;;;;0.70;90.20;;;;;;5052300;28;19913;-74
2021/03/19 02:16:07;;;;;;;;;;;0.70;90.20;;;;;;5052294;28;19955;-75
2021/03/19 02:18:51;;;;;;;;;;;0.70;90.10;;;;;;5052301;28;19905;-74
2021/03/19 02:21:35;;;;;;;;;;;0.70;90.10;;;;;;5040560;28;19946;-74
2021/03/19 02:24:19;;;;;;;;;;;0.70;90.00;;;;;;5052379;28;19959;-74
2021/03/19 02:27:03;;;;;;;;;;;0.70;90.00;;;;;;5052451;28;20266;-74
2021/03/19 02:29:48;;;;;;;;;;;0.80;89.90;;;;;;5052071;28;19908;-75
2021/03/19 02:32:15;;;;;;;;;;;0.70;89.70;;;;;;5052408;28;19913;-75
2021/03/19 02:34:44;;;;;;;;;;;0.70;89.60;;;;;;5052536;28;20018;-75
2021/03/19 02:37:12;;;;;;;;;;;0.70;89.50;;;;;;5052389;28;20381;-76
2021/03/19 02:39:38;;;;;;;;;;;0.70;89.20;;;;;;5052046;28;19905;-75
2021/03/19 02:42:07;;;;;;;;;;;0.70;89.40;;;;;;5048722;28;19911;-75
2021/03/19 02:44:33;;;;;;;;;;;0.80;89.40;;;;;;5055847;28;19995;-75
2021/03/19 02:46:59;;;;;;;;;;;0.80;89.40;;;;;;5055811;28;19916;-74
2021/03/19 02:49:24;;;;;;;;;;;0.80;89.10;;;;;;5055569;28;19905;-75
2021/03/19 02:51:52;;;;;;;;;;;0.80;89.10;;;;;;5055608;28;20008;-74
2021/03/19 02:54:18;;;;;;;;;;;0.80;89.20;;;;;;5055788;28;19915;-75
2021/03/19 02:56:43;;;;;;;;;;;0.80;89.10;;;;;;5055517;28;19995;-75
2021/03/19 02:59:09;;;;;;;;;;;0.80;89.20;;;;;;5055537;28;19935;-74
2021/03/19 03:01:34;;;;;;;;;;;0.80;89.20;;;;;;5055426;28;19951;-75
2021/03/19 03:04:00;;;;;;;;;;;0.80;88.90;;;;;;5037436;28;19905;-74
2021/03/19 03:06:40;;;;;;;;;;;0.80;88.90;;;;;;5055268;28;19962;-74
2021/03/19 03:09:06;;;;;;;;;;;0.70;89.00;;;;;;5055296;28;19982;-75
2021/03/19 03:11:32;;;;;;;;;;;0.80;89.00;;;;;;5055110;28;19914;-74
2021/03/19 03:13:58;;;;;;;;;;;0.80;89.10;;;;;;5055391;28;19999;-74
2021/03/19 03:16:23;;;;;;;;;;;0.70;89.10;;;;;;5037202;28;20322;-75
2021/03/19 03:18:49;;;;;;;;;;;0.70;88.80;;;;;;5037066;28;19909;-74
2021/03/19 03:21:14;;;;;;;;;;;0.60;88.50;;;;;;5055215;28;19905;-74
2021/03/19 03:23:40;;;;;;;;;;;0.50;88.80;;;;;;5055460;28;20354;-75
2021/03/19 03:26:06;;;;;;;;;;;0.40;89.00;;;;;;5052930;28;19913;-75
2021/03/19 03:28:31;;;;;;;;;;;0.40;89.20;;;;;;5055016;28;19928;-74
2021/03/19 03:30:57;;;;;;;;;;;0.40;89.20;;;;;;5054751;28;19909;-74
2021/03/19 03:33:23;;;;;;;;;;;0.40;89.30;;;;;;5055125;28;20362;-74
2021/03/19 03:35:50;;;;;;;;;;;0.50;89.40;;;;;;5054749;28;19911;-75
2021/03/19 03:38:17;;;;;;;;;;;0.50;89.10;;;;;;5055137;28;19996;-75
2021/03/19 03:40:45;;;;;;;;;;;0.60;89.10;;;;;;5050661;28;19904;-75
2021/03/19 03:43:13;;;;;;;;;;;0.50;88.90;;;;;;5054854;28;19958;-75
2021/03/19 03:45:38;;;;;;;;;;;0.60;89.10;;;;;;5054921;28;19905;-75
2021/03/19 03:48:04;;;;;;;;;;;0.60;89.10;;;;;;5036552;28;20270;-74
2021/03/19 03:50:30;;;;;;;;;;;0.60;89.10;;;;;;5054591;28;19982;-75
2021/03/19 03:52:55;;;;;;;;;;;0.70;89.10;;;;;;5053849;28;19913;-74
2021/03/19 03:55:21;;;;;;;;;;;0.70;89.00;;;;;;5054547;28;19905;-74
2021/03/19 03:57:47;;;;;;;;;;;0.70;89.00;;;;;;5054716;28;20255;-74
2021/03/19 04:00:14;;;;;;;;;;;0.70;88.90;;;;;;5067771;28;19912;-74
2021/03/19 04:02:40;;;;;;;;;;;0.70;88.90;;;;;;5054493;28;19916;-74
2021/03/19 04:05:07;;;;;;;;;;;0.70;88.90;;;;;;5054098;28;19905;-74
2021/03/19 04:07:32;;;;;;;;;;;0.70;88.80;;;;;;5054504;28;19951;-73
2021/03/19 04:09:58;;;;;;;;;;;0.60;88.90;;;;;;5054668;28;19947;-73
2021/03/19 04:12:24;;;;;;;;;;;0.70;89.10;;;;;;5054043;28;19967;-74
2021/03/19 04:14:49;;;;;;;;;;;0.70;89.30;;;;;;5054098;28;19947;-75
2021/03/19 04:17:27;;;;;;;;;;;0.70;89.30;;;;;;5054096;28;19942;-76
2021/03/19 04:19:53;;;;;;;;;;;0.70;89.00;;;;;;5054171;28;20000;-75
2021/03/19 04:22:19;;;;;;;;;;;0.70;89.20;;;;;;5053897;28;20001;-73
2021/03/19 04:24:45;;;;;;;;;;;0.70;89.20;;;;;;5053942;28;20328;-75
2021/03/19 04:27:13;;;;;;;;;;;0.70;89.20;;;;;;5053778;28;19912;-74
2021/03/19 04:29:39;;;;;;;;;;;0.80;89.30;;;;;;5054160;28;20226;-74
2021/03/19 04:32:04;;;;;;;;;;;0.90;89.30;;;;;;5054086;28;19979;-74
2021/03/19 04:34:30;;;;;;;;;;;0.90;88.90;;;;;;5053646;28;19934;-75
2021/03/19 04:36:56;;;;;;;;;;;0.90;88.30;;;;;;5053940;28;19905;-74
2021/03/19 04:39:24;;;;;;;;;;;0.90;87.80;;;;;;5051846;28;19985;-75
2021/03/19 04:41:51;;;;;;;;;;;0.80;88.00;;;;;;5053362;28;19981;-75
2021/03/19 04:44:18;;;;;;;;;;;0.90;88.30;;;;;;5053352;28;19912;-74
2021/03/19 04:46:43;;;;;;;;;;;0.90;88.20;;;;;;5053596;28;19920;-74
2021/03/19 04:49:09;;;;;;;;;;;0.80;88.00;;;;;;5053411;28;19905;-76
2021/03/19 04:51:34;;;;;;;;;;;0.90;88.20;;;;;;5053063;28;19970;-74
2021/03/19 04:54:00;;;;;;;;;;;0.90;88.30;;;;;;5053163;28;20012;-74
2021/03/19 04:56:26;;;;;;;;;;;1.00;88.30;;;;;;5053020;28;19999;-74
2021/03/19 04:58:52;;;;;;;;;;;1.00;88.40;;;;;;5053338;28;19931;-75
2021/03/19 05:01:17;;;;;;;;;;;1.10;88.50;;;;;;5035539;28;20313;-74
2021/03/19 05:03:43;;;;;;;;;;;1.10;88.20;;;;;;5052537;28;20380;-74
2021/03/19 05:06:09;;;;;;;;;;;1.10;88.20;;;;;;5053054;28;20320;-74
2021/03/19 05:08:34;;;;;;;;;;;1.20;88.20;;;;;;5035073;28;20348;-77
2021/03/19 05:11:00;;;;;;;;;;;1.20;88.20;;;;;;5052961;28;19905;-75
2021/03/19 05:13:26;;;;;;;;;;;1.30;87.90;;;;;;5052785;28;19913;-77
2021/03/19 05:15:51;;;;;;;;;;;1.20;87.60;;;;;;5052829;28;19905;-76
2021/03/19 05:18:17;;;;;;;;;;;1.20;87.30;;;;;;5052909;28;19916;-75
2021/03/19 05:20:43;;;;;;;;;;;1.20;87.50;;;;;;5052439;28;19939;-76
2021/03/19 05:23:22;;;;;;;;;;;1.30;87.60;;;;;;5052804;28;19904;-75
2021/03/19 05:25:48;;;;;;;;;;;1.30;87.40;;;;;;5052607;28;19905;-75
2021/03/19 05:28:14;;;;;;;;;;;1.30;87.30;;;;;;5051173;28;20019;-77
2021/03/19 05:30:40;;;;;;;;;;;1.40;87.50;;;;;;5052456;28;19959;-75
2021/03/19 05:33:05;;;;;;;;;;;1.40;87.50;;;;;;5052597;28;19917;-75
2021/03/19 05:35:32;;;;;;;;;;;1.40;87.40;;;;;;5052725;28;19940;-74
2021/03/19 05:37:57;;;;;;;;;;;1.50;87.50;;;;;;5039390;28;19913;-77
2021/03/19 05:40:29;;;;;;;;;;;1.50;86.60;;;;;;5052777;28;19958;-74
2021/03/19 05:42:55;;;;;;;;;;;1.50;86.20;;;;;;5052744;28;19911;-74
2021/03/19 05:45:28;;;;;;;;;;;1.50;86.10;;;;;;5034846;28;20350;-76
2021/03/19 05:47:56;;;;;;;;;;;1.60;86.10;;;;;;5052313;28;19912;-74
2021/03/19 05:50:27;;;;;;;;;;;1.60;85.70;;;;;;5052502;28;19943;-75
2021/03/19 05:52:52;;;;;;;;;;;1.60;85.40;;;;;;5048218;28;20343;-76
2021/03/19 05:55:20;;;;;;;;;;;1.80;85.60;;;;;;5034681;28;19904;-75
2021/03/19 05:57:46;;;;;;;;;;;1.90;85.60;;;;;;5034232;28;19905;-77
2021/03/19 06:00:19;;;;;;;;;;;2.00;85.60;;;;;;5052253;28;20389;-77
2021/03/19 06:02:46;;;;;;;;;;;2.20;85.20;;;;;;5052295;28;19911;-76
2021/03/19 06:05:15;;;;;;;;;;;2.30;84.00;;;;;;5051892;28;20053;-75
2021/03/19 06:07:45;;;;;;;;;;;2.20;83.00;;;;;;5034176;28;19931;-75
2021/03/19 06:10:40;;;;;;;;;;;2.20;82.80;;;;;;5052036;28;19998;-75
2021/03/19 06:13:08;;;;;;;;;;;2.20;83.00;;;;;;5034667;28;20027;-74
2021/03/19 06:15:36;;;;;;;;;;;2.30;83.00;;;;;;5053388;28;19905;-75
2021/03/19 06:18:04;;;;;;;;;;;2.30;83.00;;;;;;5056137;28;20270;-77
2021/03/19 06:20:30;;;;;;;;;;;2.30;82.50;;;;;;5055924;28;19931;-77
2021/03/19 06:22:58;;;;;;;;;;;2.40;82.40;;;;;;5056058;28;20316;-78
2021/03/19 06:25:41;;;;;;;;;;;2.30;82.00;;;;;;5055726;28;20015;-76
2021/03/19 06:28:25;;;;;;;;;;;2.30;81.90;;;;;;5044111;28;20482;-78
2021/03/19 06:30:51;;;;;;;;;;;2.40;82.30;;;;;;5055860;28;20273;-78
2021/03/19 06:33:27;;;;;;;;;;;2.50;81.90;;;;;;5055642;28;19923;-80
2021/03/19 06:36:08;;;;;;;;;;;2.60;81.50;;;;;;5045544;28;19979;-81
2021/03/19 06:38:34;;;;;;;;;;;2.80;81.50;;;;;;5055807;28;19905;-79
2021/03/19 06:41:19;;;;;;;;;;;2.80;80.60;;;;;;5055500;28;20251;-79
2021/03/19 06:43:45;;;;;;;;;;;2.80;80.00;;;;;;5054777;28;19904;-80
2021/03/19 06:46:13;;;;;;;;;;;2.70;79.40;;;;;;5053972;28;19911;-75
2021/03/19 06:48:43;;;;;;;;;;;2.60;79.40;;;;;;5050552;28;20329;-80
2021/03/19 06:51:10;;;;;;;;;;;2.50;79.30;;;;;;5055262;28;19923;-82
2021/03/19 06:53:35;;;;;;;;;;;2.60;79.80;;;;;;5055703;28;19944;-81
2021/03/19 06:56:15;;;;;;;;;;;2.90;79.00;;;;;;5055322;28;19912;-82
2021/03/19 06:58:48;;;;;;;;;;;3.10;78.60;;;;;;5025858;28;20431;-81
2021/03/19 07:01:22;;;;;;;;;;;3.30;77.80;;;;;;5055047;28;19951;-78
2021/03/19 07:03:51;;;;;;;;;;;3.50;77.40;;;;;;5038321;28;19904;-78
2021/03/19 07:06:17;;;;;;;;;;;3.60;77.30;;;;;;5055784;28;20370;-78
2021/03/19 07:08:57;;;;;;;;;;;3.50;74.80;;;;;;5058748;28;19905;-87
2021/03/19 07:11:36;;;;;;;;;;;3.60;75.60;;;;;;5056527;28;19909;-79
2021/03/19 07:14:24;;;;;;;;;;;3.70;74.40;;;;;;5056024;28;20281;-83
2021/03/19 07:17:22;;;;;;;;;;;3.80;73.70;;;;;;5056667;28;20336;-84
2021/03/19 07:19:53;;;;;;;;;;;3.90;73.10;;;;;;5002673;28;19908;-83
2021/03/19 07:22:27;;;;;;;;;;;4.20;72.90;;;;;;5055355;28;20288;-81
2021/03/19 07:25:28;;;;;;;;;;;4.10;71.70;;;;;;5056025;28;19909;-83
2021/03/19 07:28:13;;;;;;;;;;;4.10;72.30;;;;;;5012039;28;19912;-84
2021/03/19 07:30:45;;;;;;;;;;;4.30;73.00;;;;;;5056485;28;19970;-82
2021/03/19 07:33:29;;;;;;;;;;;4.80;72.80;;;;;;5036714;28;19913;-83
2021/03/19 07:36:09;;;;;;;;;;;5.10;71.90;;;;;;5036485;28;19972;-83
2021/03/19 07:38:55;;;;;;;;;;;5.40;71.20;;;;;;5057533;28;19909;-83
2021/03/19 07:41:39;;;;;;;;;;;5.80;70.70;;;;;;5056150;28;19912;-82
2021/03/19 07:44:32;;;;;;;;;;;6.00;69.20;;;;;;5056585;28;19905;-82
2021/03/19 07:46:57;;;;;;;;;;;6.10;67.10;;;;;;5016082;28;19905;-84
2021/03/19 07:49:23;;;;;;;;;;;6.10;67.40;;;;;;5056053;28;19916;-84
2021/03/19 07:51:56;;;;;;;;;;;6.20;67.90;;;;;;5055145;28;19913;-83
2021/03/19 07:54:26;;;;;;;;;;;5.90;64.70;;;;;;5057056;28;19915;-83
2021/03/19 07:57:04;;;;;;;;;;;5.50;64.00;;;;;;5055509;28;19905;-83
2021/03/19 07:59:29;;;;;;;;;;;5.20;65.30;;;;;;5055234;28;19967;-83
2021/03/19 08:01:58;;;;;;;;;;;5.00;64.70;;;;;;5055156;28;19905;-82
2021/03/19 08:04:24;;;;;;;;;;;5.00;64.80;;;;;;5037561;28;19916;-84
2021/03/19 08:06:55;;;;;;;;;;;5.30;65.70;;;;;;5054790;28;19905;-84
2021/03/19 08:09:23;;;;;;;;;;;5.70;65.70;;;;;;5054964;28;19911;-84
2021/03/19 08:11:57;;;;;;;;;;;6.30;65.30;;;;;;5036932;28;19915;-84
2021/03/19 08:14:38;;;;;;;;;;;6.60;63.90;;;;;;5054795;28;19908;-83
2021/03/19 08:17:21;;;;;;;;;;;6.80;61.00;;;;;;5036697;28;20082;-82
2021/03/19 08:20:10;;;;;;;;;;;7.10;61.40;;;;;;5054914;28;19909;-85
2021/03/19 08:22:59;;;;;;;;;;;7.30;60.90;;;;;;5043084;28;19905;-85
2021/03/19 08:25:27;;;;;;;;;;;7.60;59.60;;;;;;5054726;28;19915;-84
2021/03/19 08:28:03;;;;;;;;;;;8.40;57.40;;;;;;5036189;28;19905;-83
2021/03/19 08:30:37;;;;;;;;;;;9.10;56.80;;;;;;5037422;28;19905;-83
2021/03/19 08:33:03;;;;;;;;;;;9.30;55.90;;;;;;5046729;28;20308;-84
2021/03/19 08:35:33;;;;;;;;;;;9.40;55.40;;;;;;5054014;28;19911;-83
2021/03/19 08:38:18;;;;;;;;;;;9.60;54.20;;;;;;5053741;28;19911;-83
2021/03/19 08:40:46;;;;;;;;;;;9.30;51.90;;;;;;5036038;28;19908;-84
2021/03/19 08:43:19;;;;;;;;;;;8.70;53.10;;;;;;5054156;28;19904;-83
2021/03/19 08:45:44;;;;;;;;;;;8.30;53.20;;;;;;5053853;28;19904;-82
2021/03/19 08:48:14;;;;;;;;;;;8.10;53.30;;;;;;5053675;28;19959;-84
2021/03/19 08:50:42;;;;;;;;;;;7.80;53.60;;;;;;5053412;28;19916;-83
2021/03/19 08:53:12;;;;;;;;;;;7.60;53.70;;;;;;5053524;28;19959;-84
2021/03/19 08:55:38;;;;;;;;;;;7.10;54.40;;;;;;5046424;28;20406;-83
2021/03/19 08:58:23;;;;;;;;;;;6.60;55.20;;;;;;5056600;28;19988;-84
2021/03/19 09:00:50;;;;;;;;;;;6.20;56.20;;;;;;5035607;28;19905;-84
2021/03/19 09:03:40;;;;;;;;;;;6.00;57.00;;;;;;5053567;28;20358;-83
2021/03/19 09:06:06;;;;;;;;;;;5.60;56.20;;;;;;5053134;28;19996;-84
2021/03/19 09:08:43;;;;;;;;;;;5.80;57.10;;;;;;5053316;28;20004;-83
2021/03/19 09:11:14;;;;;;;;;;;6.10;57.30;;;;;;5053523;28;19904;-84
2021/03/19 09:13:59;;;;;;;;;;;6.60;57.50;;;;;;5053428;28;19931;-86
2021/03/19 09:16:38;;;;;;;;;;;6.80;56.10;;;;;;5053116;28;19905;-84
2021/03/19 09:19:23;;;;;;;;;;;6.70;55.70;;;;;;5051999;28;19915;-84
2021/03/19 09:21:49;;;;;;;;;;;6.50;55.40;;;;;;5065232;28;19916;-82
2021/03/19 09:24:17;;;;;;;;;;;6.40;56.50;;;;;;5037429;28;20281;-85
2021/03/19 09:26:53;;;;;;;;;;;6.70;56.50;;;;;;5053249;28;19911;-84
2021/03/19 09:29:19;;;;;;;;;;;6.90;56.30;;;;;;5052990;28;19911;-86
2021/03/19 09:31:47;;;;;;;;;;;6.90;56.40;;;;;;5049956;28;20358;-84
2021/03/19 09:34:14;;;;;;;;;;;6.70;55.70;;;;;;5052771;28;19912;-83
2021/03/19 09:36:59;;;;;;;;;;;6.60;56.60;;;;;;5054545;28;20000;-81
2021/03/19 09:39:43;;;;;;;;;;;6.50;56.40;;;;;;5053558;28;20282;-84
2021/03/19 09:42:28;;;;;;;;;;;6.40;56.30;;;;;;5052995;28;19994;-84
2021/03/19 09:45:00;;;;;;;;;;;6.30;56.30;;;;;;5037805;28;20300;-82
2021/03/19 09:47:30;;;;;;;;;;;6.50;56.80;;;;;;5034741;28;19904;-84
2021/03/19 09:50:06;;;;;;;;;;;7.00;56.70;;;;;;5037170;28;19939;-84
2021/03/19 09:52:32;;;;;;;;;;;7.00;53.90;;;;;;5045969;28;20289;-84
2021/03/19 09:54:58;;;;;;;;;;;6.40;54.40;;;;;;5039409;28;19905;-85
2021/03/19 09:57:28;;;;;;;;;;;6.00;54.90;;;;;;5041256;28;19909;-84
2021/03/19 10:00:06;;;;;;;;;;;5.90;55.90;;;;;;5040246;28;19904;-84
2021/03/19 10:02:34;;;;;;;;;;;6.30;56.10;;;;;;5041653;28;20286;-84
2021/03/19 10:05:08;;;;;;;;;;;6.40;55.30;;;;;;5041313;28;19905;-84
2021/03/19 10:07:35;;;;;;;;;;;6.10;55.00;;;;;;5040090;28;20255;-84
2021/03/19 10:10:00;;;;;;;;;;;6.00;55.20;;;;;;5053287;28;19955;-85
2021/03/19 10:12:32;;;;;;;;;;;6.00;55.10;;;;;;5039455;28;19913;-83
2021/03/19 10:15:09;;;;;;;;;;;6.00;55.80;;;;;;5039633;28;19912;-84
2021/03/19 10:17:36;;;;;;;;;;;6.00;55.70;;;;;;5038097;28;19913;-85
2021/03/19 10:20:11;;;;;;;;;;;5.80;55.40;;;;;;5039384;28;19905;-84
2021/03/19 10:22:41;;;;;;;;;;;5.70;55.70;;;;;;5037784;28;19909;-84
2021/03/19 10:25:26;;;;;;;;;;;5.70;56.20;;;;;;5038956;28;19919;-85
2021/03/19 10:27:53;;;;;;;;;;;5.80;56.30;;;;;;5025040;28;20274;-85
2021/03/19 10:30:22;;;;;;;;;;;6.00;55.90;;;;;;5026570;28;19905;-85
2021/03/19 10:32:47;;;;;;;;;;;6.10;55.70;;;;;;5037633;28;19921;-83
2021/03/19 10:35:18;;;;;;;;;;;6.00;55.00;;;;;;5039541;28;19905;-83
2021/03/19 10:37:47;;;;;;;;;;;5.80;55.50;;;;;;5039059;28;19908;-83
2021/03/19 10:40:15;;;;;;;;;;;5.70;55.90;;;;;;5050473;28;20314;-83
2021/03/19 10:42:44;;;;;;;;;;;5.80;55.90;;;;;;5041708;28;19905;-85
2021/03/19 10:45:12;;;;;;;;;;;5.80;55.90;;;;;;5039389;28;19905;-84
2021/03/19 10:47:54;;;;;;;;;;;5.70;55.80;;;;;;5039720;28;19905;-84
2021/03/19 10:50:23;;;;;;;;;;;5.70;56.10;;;;;;5048625;28;20324;-84
2021/03/19 10:53:06;;;;;;;;;;;5.70;56.20;;;;;;5058614;28;19916;-85
2021/03/19 10:55:34;;;;;;;;;;;5.60;56.60;;;;;;5040487;28;19905;-85
2021/03/19 10:58:35;;;;;;;;;;;5.50;56.00;;;;;;5058730;28;20322;-87
2021/03/19 11:01:03;;;;;;;;;;;5.30;55.80;;;;;;4974298;28;20271;-85
2021/03/19 11:03:31;;;;;;;;;;;5.00;56.90;;;;;;5039807;28;19905;-83
2021/03/19 11:06:02;;;;;;;;;;;5.00;57.50;;;;;;5037747;28;19916;-84
2021/03/19 11:08:27;;;;;;;;;;;5.20;57.60;;;;;;5055331;28;19909;-83
2021/03/19 11:10:54;;;;;;;;;;;5.30;56.90;;;;;;5055615;28;19924;-85
2021/03/19 11:13:30;;;;;;;;;;;5.10;56.80;;;;;;5055886;28;19919;-85
2021/03/19 11:16:00;;;;;;;;;;;5.00;57.10;;;;;;5055368;28;19935;-82
2021/03/19 11:18:37;;;;;;;;;;;4.80;57.40;;;;;;5038887;28;19905;-86
2021/03/19 11:21:05;;;;;;;;;;;4.80;57.20;;;;;;5056627;28;19904;-85
2021/03/19 11:23:49;;;;;;;;;;;4.70;57.30;;;;;;5055282;28;20345;-85
2021/03/19 11:26:28;;;;;;;;;;;4.60;56.70;;;;;;5043311;28;19931;-85
2021/03/19 11:29:12;;;;;;;;;;;4.60;56.40;;;;;;5055154;28;20277;-83
2021/03/19 11:31:57;;;;;;;;;;;4.50;56.10;;;;;;5036935;28;19909;-84
2021/03/19 11:34:28;;;;;;;;;;;4.50;56.40;;;;;;5041479;28;19905;-83
2021/03/19 11:37:06;;;;;;;;;;;4.60;54.80;;;;;;5054912;28;19904;-84
2021/03/19 11:39:32;;;;;;;;;;;4.50;54.20;;;;;;5054925;28;19911;-84
2021/03/19 11:41:57;;;;;;;;;;;4.20;54.10;;;;;;5036799;28;20365;-83
2021/03/19 11:44:23;;;;;;;;;;;4.10;54.40;;;;;;5054574;28;19904;-83
2021/03/19 11:46:49;;;;;;;;;;;3.90;55.10;;;;;;5054663;28;20332;-82
2021/03/19 11:49:15;;;;;;;;;;;3.80;55.20;;;;;;5054570;28;20031;-85
2021/03/19 11:51:43;;;;;;;;;;;3.70;55.10;;;;;;5054578;28;19924;-83
2021/03/19 11:54:09;;;;;;;;;;;3.50;55.30;;;;;;5036665;28;19995;-83
2021/03/19 11:56:37;;;;;;;;;;;3.40;55.50;;;;;;5054453;28;19908;-84
2021/03/19 11:59:14;;;;;;;;;;;3.30;56.00;;;;;;5054382;28;20284;-85
2021/03/19 12:01:39;;;;;;;;;;;3.20;56.40;;;;;;5054006;28;19905;-84
2021/03/19 12:04:05;;;;;;;;;;;3.20;56.60;;;;;;5056104;28;19909;-84
2021/03/19 12:06:32;;;;;;;;;;;3.20;56.20;;;;;;5060033;28;19965;-83
2021/03/19 12:08:58;;;;;;;;;;;3.00;56.20;;;;;;5062371;28;19905;-82
2021/03/19 12:11:23;;;;;;;;;;;2.90;56.70;;;;;;5042918;28;19911;-85
2021/03/19 12:13:49;;;;;;;;;;;2.80;57.10;;;;;;5040234;28;20273;-83
2021/03/19 12:16:15;;;;;;;;;;;2.70;57.60;;;;;;5056019;28;20365;-84
2021/03/19 12:18:41;;;;;;;;;;;2.80;57.60;;;;;;5054409;28;19904;-84
2021/03/19 12:21:07;;;;;;;;;;;2.80;57.60;;;;;;5054912;28;19915;-82
2021/03/19 12:23:33;;;;;;;;;;;2.90;57.30;;;;;;5037063;28;19911;-84
2021/03/19 12:25:59;;;;;;;;;;;3.00;57.10;;;;;;5036673;28;19992;-84
2021/03/19 12:28:25;;;;;;;;;;;3.20;57.00;;;;;;5036705;28;19904;-86
2021/03/19 12:30:52;;;;;;;;;;;3.40;56.60;;;;;;5054400;28;19908;-86
2021/03/19 12:33:21;;;;;;;;;;;3.50;55.80;;;;;;5036274;28;20323;-83
2021/03/19 12:35:47;;;;;;;;;;;3.70;54.80;;;;;;5054108;28;19916;-84
2021/03/19 12:38:14;;;;;;;;;;;3.70;54.30;;;;;;5053998;28;19905;-83
2021/03/19 12:40:42;;;;;;;;;;;3.60;55.20;;;;;;5035777;28;20255;-85
2021/03/19 12:43:09;;;;;;;;;;;3.60;55.50;;;;;;5054806;28;19931;-84
2021/03/19 12:45:35;;;;;;;;;;;3.60;55.40;;;;;;5036515;28;19904;-84
2021/03/19 12:48:01;;;;;;;;;;;3.70;55.60;;;;;;5054184;28;19912;-82
2021/03/19 12:50:33;;;;;;;;;;;3.80;55.60;;;;;;5054878;28;20293;-86
2021/03/19 12:52:59;;;;;;;;;;;3.80;55.30;;;;;;5054001;28;19921;-84
2021/03/19 12:55:28;;;;;;;;;;;3.90;55.10;;;;;;5044927;28;19911;-84
2021/03/19 12:57:54;;;;;;;;;;;3.90;55.30;;;;;;5040046;28;19915;-84
2021/03/19 13:00:36;;;;;;;;;;;3.90;55.30;;;;;;5053277;28;19905;-84
2021/03/19 13:06:06;;;;;;;;;;;3.90;54.90;;;;;;5042040;28;20254;-84
2021/03/19 13:08:32;;;;;;;;;;;3.70;54.60;;;;;;5053278;28;19905;-84
2021/03/19 13:14:11;;;;;;;;;;;3.70;55.60;;;;;;5054475;28;19917;-84
2021/03/19 13:16:42;;;;;;;;;;;3.60;54.70;;;;;;5053448;28;19917;-85
2021/03/19 13:19:07;;;;;;;;;;;3.50;53.80;;;;;;5053459;28;19905;-83
2021/03/19 13:21:34;;;;;;;;;;;3.30;54.30;;;;;;5035288;28;19908;-83
2021/03/19 13:24:03;;;;;;;;;;;3.30;54.50;;;;;;5037106;28;20382;-84
2021/03/19 13:26:34;;;;;;;;;;;3.20;54.10;;;;;;5069147;28;19904;-84
2021/03/19 13:29:00;;;;;;;;;;;3.20;54.40;;;;;;5061619;28;19904;-84
2021/03/19 13:31:25;;;;;;;;;;;3.10;54.20;;;;;;5054016;28;19905;-85
2021/03/19 13:33:51;;;;;;;;;;;3.10;54.70;;;;;;5052867;28;20354;-84
2021/03/19 13:36:20;;;;;;;;;;;3.10;54.30;;;;;;5052705;28;19962;-83
2021/03/19 13:38:48;;;;;;;;;;;3.10;54.70;;;;;;5052916;28;19911;-85
2021/03/19 13:41:14;;;;;;;;;;;3.10;54.60;;;;;;5052556;28;19951;-85
2021/03/19 13:43:43;;;;;;;;;;;3.00;54.80;;;;;;5052796;28;19908;-83
2021/03/19 13:46:10;;;;;;;;;;;3.00;55.20;;;;;;5052652;28;19911;-83
2021/03/19 13:48:36;;;;;;;;;;;3.00;55.40;;;;;;5034834;28;19909;-84
2021/03/19 13:51:03;;;;;;;;;;;3.10;55.80;;;;;;5052335;28;19917;-84
2021/03/19 13:53:28;;;;;;;;;;;3.10;56.30;;;;;;5052583;28;19934;-84
2021/03/19 13:55:54;;;;;;;;;;;3.10;56.40;;;;;;5052776;28;19912;-84
2021/03/19 13:58:37;;;;;;;;;;;3.10;56.40;;;;;;5052314;28;19958;-84
2021/03/19 14:01:05;;;;;;;;;;;3.10;55.20;;;;;;5066289;28;19905;-83
2021/03/19 14:03:31;;;;;;;;;;;3.00;54.30;;;;;;5053729;28;19905;-84
2021/03/19 14:05:57;;;;;;;;;;;3.00;54.60;;;;;;5054221;28;20293;-84
2021/03/19 14:08:24;;;;;;;;;;;2.90;55.00;;;;;;5034244;28;20383;-83
2021/03/19 14:10:51;;;;;;;;;;;2.80;55.10;;;;;;5034033;28;20383;-83
2021/03/19 14:13:17;;;;;;;;;;;2.70;55.90;;;;;;5053645;28;19920;-83
2021/03/19 14:15:42;;;;;;;;;;;2.60;55.60;;;;;;5053935;28;19912;-83
2021/03/19 14:18:11;;;;;;;;;;;2.50;55.80;;;;;;5052679;28;19958;-84
2021/03/19 14:20:38;;;;;;;;;;;2.60;56.00;;;;;;5034698;28;19908;-83
2021/03/19 14:23:05;;;;;;;;;;;2.60;56.20;;;;;;5053023;28;19905;-83
2021/03/19 14:25:32;;;;;;;;;;;2.70;56.30;;;;;;5048431;28;19999;-82
2021/03/19 14:27:58;;;;;;;;;;;2.70;56.40;;;;;;5052084;28;20319;-83
2021/03/19 14:30:26;;;;;;;;;;;2.70;56.60;;;;;;5053060;28;20273;-82
2021/03/19 14:32:55;;;;;;;;;;;2.70;57.00;;;;;;5051946;28;19935;-82
2021/03/19 14:35:21;;;;;;;;;;;2.70;57.30;;;;;;5052208;28;19927;-83
2021/03/19 14:37:47;;;;;;;;;;;2.70;57.60;;;;;;5037153;28;19908;-84
2021/03/19 14:40:18;;;;;;;;;;;2.70;57.80;;;;;;5055873;28;19912;-84
2021/03/19 14:42:44;;;;;;;;;;;2.70;58.00;;;;;;5055822;28;19905;-83
2021/03/19 14:45:10;;;;;;;;;;;2.70;58.00;;;;;;5056224;28;20007;-84
2021/03/19 14:47:36;;;;;;;;;;;2.60;58.20;;;;;;5059259;28;20019;-82
2021/03/19 14:50:03;;;;;;;;;;;2.60;58.50;;;;;;5055795;28;19981;-84
2021/03/19 14:52:28;;;;;;;;;;;2.50;58.50;;;;;;5050384;28;20365;-83
2021/03/19 14:54:54;;;;;;;;;;;2.50;58.20;;;;;;5056787;28;19911;-84